Saint Petersburg, FL (33701)

7:14 PM EDT on August 24, 2016 (GMT -0400)
Central Avenue | | Change Station

Elev 45 ft 27.77 °N, 82.64 °W | Updated 9 minutes ago

Partly Cloudy
Partly Cloudy
89.4 °F
Feels Like 102 °F
N
1.2
Wind Variable Wind from SE
Gusts 3.1 mph

Today
High -- | Low -- °F
--% Chance of Precip.
Yesterday
High -- | Low -- °F
Precip. -- in
Pressure 30.06 in
Visibility 10.0 miles
Clouds Few 3700 ft
Heat Index 102 °F
Dew Point 77 °F
Humidity 67%
Rainfall 0.00 in
Snow Depth Not available.
7:05 AM 7:59 PM
Waning Gibbous, 52% visible
METAR KSPG 242253Z 10016KT 10SM FEW037 29/24 A3006 RMK AO2 SLP177 T02890244
Pressure 30.06 in
Visibility 10.0 miles
Clouds Few 3700 ft
Heat Index 102 °F
Dew Point 77 °F
Humidity 67%
Rainfall 0.00 in
Snow Depth Not available.
7:05 AM 7:59 PM
Waning Gibbous, 52% visible
METAR KSPG 242253Z 10016KT 10SM FEW037 29/24 A3006 RMK AO2 SLP177 T02890244
A tropical disturbance we've monitored since last week, may have a dangerous future in store for the southeast U.S. and Gulf coasts this weekend into next week. The National Weather Service has issued a flash flood watch for Puerto Rico and the U.S. Virgin Islands. Rainfall totals of 2-4 inches (locally higher) are expected through Wednesday night in those areas.

The National Hurricane Center says this system has a medium to high chance of development into a tropical depression or tropical storm over the next 2 to 5 days. A tight consensus of our guidance suggests the disturbance should continue in a general west or west-northwest trajectory the next several days.

10-Day Weather Forecast

Almanac

Astronomy

Aug. 24, 2016 Rise Set
Actual Time
Civil Twilight
Nautical Twilight
Astronomical Twilight
Moon
Length of Visible Light
Length of Day
Tomorrow will be .
, % of the Moon is Illuminated

Today's Extremes

State Highs State Lows

Community

WunderPhotos

Upload Photos

1,934,731 photos uploaded!

WunderBlog® & News

Nearby

Air Quality

  Air Quality AQ Index Pollutant
Not available.

Snow Depth

Station Depth Elevation

Earthquake Activity

City Distance Mag. Time & Date
Minimum magnitude displayed is 2.5.

Coastal Water Temperatures

Place Temperature

Stations

Nearby Weather Stations

Station Location Temp. Windchill Dew Point Humidity Wind Precip. Elev Updated Type
                   

Watches & Warnings

There are currently no watches in effect.